Hauptseite
METAR-TAF:

METAR-TAF

Flughäfen :

Fliegerhorst Wittmundhafen

Wittmund, Deutschland

Breite: 53-33N, Länge: 007-40E, Höhe: 8 m

Beobachtung

Neuester Wetterbericht von vor 24 Minuten, um 08:20 UTC
Wind 10 kt aus Südwest
Temperatur 14°C
Luftfeuchtigkeit 88%
Luftdruck 1001 hPa
Sichtweite 10 km oder mehr
Aufgelockert bewölkt in der Höhe von 1400 ft
Aufgelockert bewölkt in der Höhe von 2000 ft, Towering cumulus.
Durchbrochene Bewölkung in der Höhe von 3500 ft

METAR: ETNT 240820Z 22010KT 9999 SCT014 SCT020TCU BKN035 14/12 Q1001 BLACKBLU

Zeit: 10:44 (08:44 UTC)


TAF: fehlend

Wetterbeobachtungen und Prognosen von mehr als 4000 Flughäfen (METAR und TAF Bericht).

Die verfügbaren Stationen werden durch gelbe und rote Markierungen auf der Karte dargestellt.

Führen Sie die Maus auf sie, um den Namen der Station zu sehen.

Darauf klicken, um die Beobachtung von Wetterbeobachtungen und Prognosen zu sehen.

Um die Karte zu ändern : klicken Sie auf den grünen Tasten mit einem schwarzen Kreuz Zum Vergrößern, auf den grünen Button mit einem Gedankenstrich zu verkleinern, oder auf die grünen Pfeile für benachbarte Karten.


METAR-TAF: